Impacts TAF Board INFO
FOR SITUATIONAL AWARENESS. NOT TO BE USED FOR FLIGHT PLANNING PURPOSES.
IDs:

KFLL - Ft Lauderdale-Hollyw, FL, US

Issued at 0257 UTC 19 Feb 2018
Updated at 0346 UTC 19 Feb 2018
Potential Impact None Slight Moderate High
Time<<20/04Z 20/05Z 20/06Z 20/07Z 20/08Z 20/09Z 20/10Z 20/11Z 20/12Z 20/13Z 20/14Z 20/15Z 20/16Z
Type PRVL PRVL
VIS >6 >6
CIG -- --
Cover SCT SCT
FltCat VFR VFR
WX -- --
WDir 110 110
WSpd 15 15
WGst -- --

Raw TAF
KFLL 190257Z 1903/2006 10012KT P6SM FEW025
  FM190600 09008KT P6SM SCT030 SCT050
  FM191500 09015G25KT P6SM SCT035 BKN060
  FM192200 11015KT P6SM SCT050


METAR Board
Radar Display
Forecast Discussion

FOR SITUATIONAL AWARENESS. NOT TO BE USED FOR FLIGHT PLANNING PURPOSES.